sensor_id;sensor_type;location;lat;lon;timestamp;P1;durP1;ratioP1;P2;durP2;ratioP2
2035;SDS011;23642;42.658;23.350;2023-07-13T00:01:27;100.83;;;95.07;;
2035;SDS011;23642;42.658;23.350;2023-07-13T00:03:56;98.70;;;92.80;;
2035;SDS011;23642;42.658;23.350;2023-07-13T00:06:23;102.27;;;96.00;;
2035;SDS011;23642;42.658;23.350;2023-07-13T00:08:51;99.53;;;93.33;;
2035;SDS011;23642;42.658;23.350;2023-07-13T00:11:18;100.13;;;94.17;;
2035;SDS011;23642;42.658;23.350;2023-07-13T00:13:45;100.47;;;94.57;;
2035;SDS011;23642;42.658;23.350;2023-07-13T00:16:13;102.33;;;96.43;;
2035;SDS011;23642;42.658;23.350;2023-07-13T00:18:40;101.33;;;95.20;;
2035;SDS011;23642;42.658;23.350;2023-07-13T00:21:09;99.10;;;93.40;;
2035;SDS011;23642;42.658;23.350;2023-07-13T00:23:36;102.80;;;96.73;;
2035;SDS011;23642;42.658;23.350;2023-07-13T00:26:07;103.57;;;97.27;;
2035;SDS011;23642;42.658;23.350;2023-07-13T00:28:38;101.40;;;95.00;;
2035;SDS011;23642;42.658;23.350;2023-07-13T00:31:08;105.07;;;98.90;;
2035;SDS011;23642;42.658;23.350;2023-07-13T00:33:36;104.30;;;98.23;;
2035;SDS011;23642;42.658;23.350;2023-07-13T00:36:03;101.77;;;95.40;;
2035;SDS011;23642;42.658;23.350;2023-07-13T00:38:32;103.80;;;97.47;;
2035;SDS011;23642;42.658;23.350;2023-07-13T00:40:59;102.83;;;96.90;;
2035;SDS011;23642;42.658;23.350;2023-07-13T00:43:28;102.83;;;96.63;;
2035;SDS011;23642;42.658;23.350;2023-07-13T00:48:43;100.30;;;94.33;;
2035;SDS011;23642;42.658;23.350;2023-07-13T00:51:13;103.17;;;96.97;;
2035;SDS011;23642;42.658;23.350;2023-07-13T00:53:48;101.93;;;95.83;;
2035;SDS011;23642;42.658;23.350;2023-07-13T00:56:20;103.87;;;97.67;;
2035;SDS011;23642;42.658;23.350;2023-07-13T00:58:47;105.17;;;98.97;;
2035;SDS011;23642;42.658;23.350;2023-07-13T01:01:15;101.50;;;95.27;;
2035;SDS011;23642;42.658;23.350;2023-07-13T01:03:42;103.50;;;97.37;;
2035;SDS011;23642;42.658;23.350;2023-07-13T01:06:09;106.10;;;99.70;;
2035;SDS011;23642;42.658;23.350;2023-07-13T01:08:37;104.73;;;98.10;;
2035;SDS011;23642;42.658;23.350;2023-07-13T01:11:06;107.93;;;101.47;;
2035;SDS011;23642;42.658;23.350;2023-07-13T01:13:34;107.13;;;100.80;;
2035;SDS011;23642;42.658;23.350;2023-07-13T01:16:02;106.30;;;99.90;;
2035;SDS011;23642;42.658;23.350;2023-07-13T01:18:38;105.83;;;99.40;;
2035;SDS011;23642;42.658;23.350;2023-07-13T01:21:07;109.23;;;102.20;;
2035;SDS011;23642;42.658;23.350;2023-07-13T01:23:33;107.47;;;101.07;;
2035;SDS011;23642;42.658;23.350;2023-07-13T01:26:00;108.43;;;101.77;;
2035;SDS011;23642;42.658;23.350;2023-07-13T01:28:28;108.83;;;102.37;;
2035;SDS011;23642;42.658;23.350;2023-07-13T01:31:02;108.63;;;102.03;;
2035;SDS011;23642;42.658;23.350;2023-07-13T01:33:30;111.20;;;104.60;;
2035;SDS011;23642;42.658;23.350;2023-07-13T01:35:57;108.27;;;101.60;;
2035;SDS011;23642;42.658;23.350;2023-07-13T01:38:26;106.03;;;99.63;;
2035;SDS011;23642;42.658;23.350;2023-07-13T01:40:53;105.40;;;99.20;;
2035;SDS011;23642;42.658;23.350;2023-07-13T01:43:20;106.77;;;100.00;;
2035;SDS011;23642;42.658;23.350;2023-07-13T01:45:47;105.27;;;99.03;;
2035;SDS011;23642;42.658;23.350;2023-07-13T01:48:14;107.70;;;100.80;;
2035;SDS011;23642;42.658;23.350;2023-07-13T01:50:41;105.83;;;99.63;;
2035;SDS011;23642;42.658;23.350;2023-07-13T01:53:08;107.00;;;100.43;;
2035;SDS011;23642;42.658;23.350;2023-07-13T01:55:37;106.27;;;99.87;;
2035;SDS011;23642;42.658;23.350;2023-07-13T01:58:04;108.47;;;101.57;;
2035;SDS011;23642;42.658;23.350;2023-07-13T02:00:33;109.50;;;102.90;;
2035;SDS011;23642;42.658;23.350;2023-07-13T02:03:00;105.93;;;99.47;;
2035;SDS011;23642;42.658;23.350;2023-07-13T02:05:27;107.50;;;101.27;;
2035;SDS011;23642;42.658;23.350;2023-07-13T02:07:54;105.77;;;99.40;;
2035;SDS011;23642;42.658;23.350;2023-07-13T02:10:21;103.80;;;97.60;;
2035;SDS011;23642;42.658;23.350;2023-07-13T02:12:50;106.40;;;99.77;;
2035;SDS011;23642;42.658;23.350;2023-07-13T02:15:17;104.80;;;98.30;;
2035;SDS011;23642;42.658;23.350;2023-07-13T02:17:44;106.27;;;99.53;;
2035;SDS011;23642;42.658;23.350;2023-07-13T02:20:11;105.50;;;99.30;;
2035;SDS011;23642;42.658;23.350;2023-07-13T02:22:38;105.13;;;98.93;;
2035;SDS011;23642;42.658;23.350;2023-07-13T02:25:05;105.73;;;99.13;;
2035;SDS011;23642;42.658;23.350;2023-07-13T02:27:32;108.33;;;101.37;;
2035;SDS011;23642;42.658;23.350;2023-07-13T02:30:00;104.93;;;98.77;;
2035;SDS011;23642;42.658;23.350;2023-07-13T02:32:28;106.70;;;99.87;;
2035;SDS011;23642;42.658;23.350;2023-07-13T02:34:54;104.50;;;98.13;;
2035;SDS011;23642;42.658;23.350;2023-07-13T02:37:21;102.67;;;96.27;;
2035;SDS011;23642;42.658;23.350;2023-07-13T02:39:48;104.60;;;98.30;;
2035;SDS011;23642;42.658;23.350;2023-07-13T02:42:16;107.20;;;100.40;;
2035;SDS011;23642;42.658;23.350;2023-07-13T02:44:43;102.17;;;95.63;;
2035;SDS011;23642;42.658;23.350;2023-07-13T02:47:12;107.73;;;101.13;;
2035;SDS011;23642;42.658;23.350;2023-07-13T02:49:39;103.93;;;97.10;;
2035;SDS011;23642;42.658;23.350;2023-07-13T02:52:06;107.33;;;100.87;;
2035;SDS011;23642;42.658;23.350;2023-07-13T02:54:33;103.60;;;97.13;;
2035;SDS011;23642;42.658;23.350;2023-07-13T02:57:00;106.60;;;99.90;;
2035;SDS011;23642;42.658;23.350;2023-07-13T02:59:26;103.40;;;96.97;;
2035;SDS011;23642;42.658;23.350;2023-07-13T03:01:53;104.00;;;97.30;;
2035;SDS011;23642;42.658;23.350;2023-07-13T03:04:22;103.70;;;96.90;;
2035;SDS011;23642;42.658;23.350;2023-07-13T03:06:49;105.53;;;99.03;;
2035;SDS011;23642;42.658;23.350;2023-07-13T03:09:16;105.43;;;98.27;;
2035;SDS011;23642;42.658;23.350;2023-07-13T03:11:43;105.60;;;99.10;;
2035;SDS011;23642;42.658;23.350;2023-07-13T03:14:10;104.13;;;97.53;;
2035;SDS011;23642;42.658;23.350;2023-07-13T03:16:37;107.00;;;100.40;;
2035;SDS011;23642;42.658;23.350;2023-07-13T03:19:04;104.17;;;97.43;;
2035;SDS011;23642;42.658;23.350;2023-07-13T03:21:32;105.17;;;98.30;;
2035;SDS011;23642;42.658;23.350;2023-07-13T03:23:59;107.13;;;99.73;;
2035;SDS011;23642;42.658;23.350;2023-07-13T03:26:26;104.50;;;97.30;;
2035;SDS011;23642;42.658;23.350;2023-07-13T03:28:53;104.60;;;97.80;;
2035;SDS011;23642;42.658;23.350;2023-07-13T03:31:20;102.93;;;95.80;;
2035;SDS011;23642;42.658;23.350;2023-07-13T03:33:49;102.93;;;96.17;;
2035;SDS011;23642;42.658;23.350;2023-07-13T03:36:17;103.90;;;97.10;;
2035;SDS011;23642;42.658;23.350;2023-07-13T03:38:51;102.50;;;95.50;;
2035;SDS011;23642;42.658;23.350;2023-07-13T03:41:20;100.27;;;93.83;;
2035;SDS011;23642;42.658;23.350;2023-07-13T03:43:47;101.83;;;95.03;;
2035;SDS011;23642;42.658;23.350;2023-07-13T03:46:17;101.33;;;94.50;;
2035;SDS011;23642;42.658;23.350;2023-07-13T03:48:45;102.87;;;95.97;;
2035;SDS011;23642;42.658;23.350;2023-07-13T03:51:13;100.20;;;93.80;;
2035;SDS011;23642;42.658;23.350;2023-07-13T03:53:43;101.70;;;95.17;;
2035;SDS011;23642;42.658;23.350;2023-07-13T03:56:12;103.70;;;96.83;;
2035;SDS011;23642;42.658;23.350;2023-07-13T03:58:41;102.40;;;95.80;;
2035;SDS011;23642;42.658;23.350;2023-07-13T04:01:09;104.40;;;97.40;;
2035;SDS011;23642;42.658;23.350;2023-07-13T04:03:37;102.87;;;96.27;;
2035;SDS011;23642;42.658;23.350;2023-07-13T04:06:05;105.43;;;98.03;;
2035;SDS011;23642;42.658;23.350;2023-07-13T04:08:40;105.63;;;98.83;;
2035;SDS011;23642;42.658;23.350;2023-07-13T04:11:07;104.30;;;97.20;;
2035;SDS011;23642;42.658;23.350;2023-07-13T04:13:38;106.63;;;99.30;;
2035;SDS011;23642;42.658;23.350;2023-07-13T04:16:05;106.73;;;99.93;;
2035;SDS011;23642;42.658;23.350;2023-07-13T04:18:32;106.40;;;99.20;;
2035;SDS011;23642;42.658;23.350;2023-07-13T04:20:59;103.83;;;96.83;;
2035;SDS011;23642;42.658;23.350;2023-07-13T04:23:26;104.20;;;96.67;;
2035;SDS011;23642;42.658;23.350;2023-07-13T04:25:56;105.63;;;98.47;;
2035;SDS011;23642;42.658;23.350;2023-07-13T04:28:24;106.40;;;99.23;;
2035;SDS011;23642;42.658;23.350;2023-07-13T04:30:53;103.57;;;96.47;;
2035;SDS011;23642;42.658;23.350;2023-07-13T04:33:21;106.77;;;99.67;;
2035;SDS011;23642;42.658;23.350;2023-07-13T04:35:51;101.67;;;94.43;;
2035;SDS011;23642;42.658;23.350;2023-07-13T04:38:25;103.53;;;96.80;;
2035;SDS011;23642;42.658;23.350;2023-07-13T04:40:54;106.43;;;99.43;;
2035;SDS011;23642;42.658;23.350;2023-07-13T04:43:22;103.57;;;96.70;;
2035;SDS011;23642;42.658;23.350;2023-07-13T04:45:49;104.30;;;97.50;;
2035;SDS011;23642;42.658;23.350;2023-07-13T04:48:18;104.07;;;96.77;;
2035;SDS011;23642;42.658;23.350;2023-07-13T04:50:45;106.43;;;99.53;;
2035;SDS011;23642;42.658;23.350;2023-07-13T04:53:13;106.40;;;99.30;;
2035;SDS011;23642;42.658;23.350;2023-07-13T04:55:40;108.57;;;100.83;;
2035;SDS011;23642;42.658;23.350;2023-07-13T04:58:07;107.37;;;99.97;;
2035;SDS011;23642;42.658;23.350;2023-07-13T05:00:36;106.67;;;99.13;;
2035;SDS011;23642;42.658;23.350;2023-07-13T05:03:03;105.77;;;98.60;;
2035;SDS011;23642;42.658;23.350;2023-07-13T05:05:32;106.73;;;99.40;;
2035;SDS011;23642;42.658;23.350;2023-07-13T05:07:59;106.90;;;99.90;;
2035;SDS011;23642;42.658;23.350;2023-07-13T05:10:28;106.37;;;99.13;;
2035;SDS011;23642;42.658;23.350;2023-07-13T05:12:58;108.67;;;101.00;;
2035;SDS011;23642;42.658;23.350;2023-07-13T05:15:27;110.30;;;102.40;;
2035;SDS011;23642;42.658;23.350;2023-07-13T05:17:56;109.40;;;101.60;;
2035;SDS011;23642;42.658;23.350;2023-07-13T05:20:26;109.10;;;101.70;;
2035;SDS011;23642;42.658;23.350;2023-07-13T05:22:54;106.27;;;99.00;;
2035;SDS011;23642;42.658;23.350;2023-07-13T05:29:01;107.77;;;100.37;;
2035;SDS011;23642;42.658;23.350;2023-07-13T05:34:52;107.40;;;100.20;;
2035;SDS011;23642;42.658;23.350;2023-07-13T05:37:21;107.70;;;100.37;;
2035;SDS011;23642;42.658;23.350;2023-07-13T05:39:50;109.60;;;100.70;;
2035;SDS011;23642;42.658;23.350;2023-07-13T05:42:17;109.50;;;100.80;;
2035;SDS011;23642;42.658;23.350;2023-07-13T05:44:44;106.87;;;99.40;;
2035;SDS011;23642;42.658;23.350;2023-07-13T05:47:16;108.27;;;100.97;;
2035;SDS011;23642;42.658;23.350;2023-07-13T05:49:51;112.23;;;104.10;;
2035;SDS011;23642;42.658;23.350;2023-07-13T05:52:21;109.63;;;102.07;;
2035;SDS011;23642;42.658;23.350;2023-07-13T05:54:56;111.10;;;103.30;;
2035;SDS011;23642;42.658;23.350;2023-07-13T05:57:24;111.47;;;103.70;;
2035;SDS011;23642;42.658;23.350;2023-07-13T05:59:51;109.90;;;101.60;;
2035;SDS011;23642;42.658;23.350;2023-07-13T06:02:22;112.23;;;104.50;;
2035;SDS011;23642;42.658;23.350;2023-07-13T06:04:51;113.83;;;106.30;;
2035;SDS011;23642;42.658;23.350;2023-07-13T06:07:18;113.60;;;105.70;;
2035;SDS011;23642;42.658;23.350;2023-07-13T06:09:45;121.27;;;113.57;;
2035;SDS011;23642;42.658;23.350;2023-07-13T06:12:14;124.10;;;115.63;;
2035;SDS011;23642;42.658;23.350;2023-07-13T06:14:55;123.47;;;115.53;;
2035;SDS011;23642;42.658;23.350;2023-07-13T06:17:27;121.30;;;113.10;;
2035;SDS011;23642;42.658;23.350;2023-07-13T06:21:14;120.07;;;112.67;;
2035;SDS011;23642;42.658;23.350;2023-07-13T06:32:19;119.07;;;111.80;;
2035;SDS011;23642;42.658;23.350;2023-07-13T06:34:57;121.20;;;114.10;;
2035;SDS011;23642;42.658;23.350;2023-07-13T06:37:30;121.93;;;113.93;;
2035;SDS011;23642;42.658;23.350;2023-07-13T06:40:18;117.10;;;110.20;;
2035;SDS011;23642;42.658;23.350;2023-07-13T06:42:53;128.83;;;121.20;;
2035;SDS011;23642;42.658;23.350;2023-07-13T06:45:32;130.77;;;123.17;;
2035;SDS011;23642;42.658;23.350;2023-07-13T06:48:19;134.30;;;126.30;;
2035;SDS011;23642;42.658;23.350;2023-07-13T06:50:47;132.17;;;124.47;;
2035;SDS011;23642;42.658;23.350;2023-07-13T06:56:08;132.70;;;125.00;;
2035;SDS011;23642;42.658;23.350;2023-07-13T06:58:54;129.53;;;121.50;;
2035;SDS011;23642;42.658;23.350;2023-07-13T07:01:26;135.37;;;127.13;;
2035;SDS011;23642;42.658;23.350;2023-07-13T07:04:33;132.50;;;124.80;;
2035;SDS011;23642;42.658;23.350;2023-07-13T07:07:23;133.47;;;125.63;;
2035;SDS011;23642;42.658;23.350;2023-07-13T07:10:02;135.53;;;127.83;;
2035;SDS011;23642;42.658;23.350;2023-07-13T07:12:30;120.67;;;113.00;;
2035;SDS011;23642;42.658;23.350;2023-07-13T07:14:57;125.00;;;117.37;;
2035;SDS011;23642;42.658;23.350;2023-07-13T07:17:32;131.73;;;123.73;;
2035;SDS011;23642;42.658;23.350;2023-07-13T07:20:18;134.23;;;126.00;;
2035;SDS011;23642;42.658;23.350;2023-07-13T07:22:48;133.27;;;124.70;;
2035;SDS011;23642;42.658;23.350;2023-07-13T07:25:18;131.53;;;124.03;;
2035;SDS011;23642;42.658;23.350;2023-07-13T07:31:15;135.23;;;127.13;;
2035;SDS011;23642;42.658;23.350;2023-07-13T07:33:57;134.07;;;126.00;;
2035;SDS011;23642;42.658;23.350;2023-07-13T07:36:24;137.17;;;128.80;;
2035;SDS011;23642;42.658;23.350;2023-07-13T07:38:56;132.73;;;124.83;;
2035;SDS011;23642;42.658;23.350;2023-07-13T07:41:27;137.00;;;129.13;;
2035;SDS011;23642;42.658;23.350;2023-07-13T07:44:10;135.23;;;126.70;;
2035;SDS011;23642;42.658;23.350;2023-07-13T07:46:38;138.47;;;129.97;;
2035;SDS011;23642;42.658;23.350;2023-07-13T07:49:52;141.13;;;131.93;;
2035;SDS011;23642;42.658;23.350;2023-07-13T07:52:58;127.20;;;119.60;;
2035;SDS011;23642;42.658;23.350;2023-07-13T07:55:58;142.53;;;131.63;;
2035;SDS011;23642;42.658;23.350;2023-07-13T07:58:45;138.83;;;129.90;;
2035;SDS011;23642;42.658;23.350;2023-07-13T08:01:23;139.10;;;130.70;;
2035;SDS011;23642;42.658;23.350;2023-07-13T08:04:11;138.20;;;130.37;;
2035;SDS011;23642;42.658;23.350;2023-07-13T08:10:13;126.83;;;118.60;;
2035;SDS011;23642;42.658;23.350;2023-07-13T08:13:01;128.50;;;120.73;;
2035;SDS011;23642;42.658;23.350;2023-07-13T08:15:30;137.10;;;128.53;;
2035;SDS011;23642;42.658;23.350;2023-07-13T08:18:18;137.30;;;129.10;;
2035;SDS011;23642;42.658;23.350;2023-07-13T08:20:56;136.07;;;127.90;;
2035;SDS011;23642;42.658;23.350;2023-07-13T08:23:36;136.73;;;128.83;;
2035;SDS011;23642;42.658;23.350;2023-07-13T08:26:23;136.93;;;128.87;;
2035;SDS011;23642;42.658;23.350;2023-07-13T08:29:03;129.47;;;121.73;;
2035;SDS011;23642;42.658;23.350;2023-07-13T08:31:38;138.87;;;130.43;;
2035;SDS011;23642;42.658;23.350;2023-07-13T08:34:08;134.30;;;126.03;;
2035;SDS011;23642;42.658;23.350;2023-07-13T08:36:51;137.07;;;128.87;;
2035;SDS011;23642;42.658;23.350;2023-07-13T08:39:20;135.30;;;127.20;;
2035;SDS011;23642;42.658;23.350;2023-07-13T08:41:51;136.73;;;128.53;;
2035;SDS011;23642;42.658;23.350;2023-07-13T08:44:44;137.60;;;129.47;;
2035;SDS011;23642;42.658;23.350;2023-07-13T08:47:23;131.00;;;123.10;;
2035;SDS011;23642;42.658;23.350;2023-07-13T08:49:53;129.90;;;121.73;;
2035;SDS011;23642;42.658;23.350;2023-07-13T08:55:31;130.90;;;123.10;;
2035;SDS011;23642;42.658;23.350;2023-07-13T08:58:18;137.80;;;129.47;;
2035;SDS011;23642;42.658;23.350;2023-07-13T09:00:47;137.83;;;129.50;;
2035;SDS011;23642;42.658;23.350;2023-07-13T09:03:36;138.13;;;130.30;;
2035;SDS011;23642;42.658;23.350;2023-07-13T09:06:30;135.33;;;127.27;;
2035;SDS011;23642;42.658;23.350;2023-07-13T09:09:40;131.23;;;123.37;;
2035;SDS011;23642;42.658;23.350;2023-07-13T09:12:51;130.87;;;123.37;;
2035;SDS011;23642;42.658;23.350;2023-07-13T09:15:52;130.50;;;122.90;;
2035;SDS011;23642;42.658;23.350;2023-07-13T09:18:23;131.40;;;123.67;;
2035;SDS011;23642;42.658;23.350;2023-07-13T09:21:00;139.33;;;131.33;;
2035;SDS011;23642;42.658;23.350;2023-07-13T09:23:43;132.63;;;124.47;;
2035;SDS011;23642;42.658;23.350;2023-07-13T09:26:58;131.37;;;123.67;;
2035;SDS011;23642;42.658;23.350;2023-07-13T09:29:47;140.17;;;132.17;;
2035;SDS011;23642;42.658;23.350;2023-07-13T09:32:48;139.40;;;131.40;;
2035;SDS011;23642;42.658;23.350;2023-07-13T09:35:34;130.37;;;122.43;;
2035;SDS011;23642;42.658;23.350;2023-07-13T09:38:03;132.70;;;125.00;;
2035;SDS011;23642;42.658;23.350;2023-07-13T09:41:36;140.83;;;132.63;;
2035;SDS011;23642;42.658;23.350;2023-07-13T09:44:13;141.07;;;132.60;;
2035;SDS011;23642;42.658;23.350;2023-07-13T09:47:02;130.57;;;122.50;;
2035;SDS011;23642;42.658;23.350;2023-07-13T09:50:00;133.23;;;125.33;;
2035;SDS011;23642;42.658;23.350;2023-07-13T09:52:41;133.20;;;125.50;;
2035;SDS011;23642;42.658;23.350;2023-07-13T09:55:29;131.27;;;122.87;;
2035;SDS011;23642;42.658;23.350;2023-07-13T09:58:08;140.03;;;131.63;;
2035;SDS011;23642;42.658;23.350;2023-07-13T10:03:36;129.87;;;122.17;;
2035;SDS011;23642;42.658;23.350;2023-07-13T10:06:28;124.73;;;117.07;;
2035;SDS011;23642;42.658;23.350;2023-07-13T10:12:22;143.07;;;134.77;;
2035;SDS011;23642;42.658;23.350;2023-07-13T10:14:52;138.17;;;129.73;;
2035;SDS011;23642;42.658;23.350;2023-07-13T10:17:25;134.33;;;126.50;;
2035;SDS011;23642;42.658;23.350;2023-07-13T10:23:24;125.87;;;118.33;;
2035;SDS011;23642;42.658;23.350;2023-07-13T10:26:09;124.43;;;116.80;;
2035;SDS011;23642;42.658;23.350;2023-07-13T10:29:01;140.73;;;132.33;;
2035;SDS011;23642;42.658;23.350;2023-07-13T10:31:52;142.90;;;133.90;;
2035;SDS011;23642;42.658;23.350;2023-07-13T10:34:21;132.70;;;124.97;;
2035;SDS011;23642;42.658;23.350;2023-07-13T10:36:51;133.90;;;125.97;;
2035;SDS011;23642;42.658;23.350;2023-07-13T10:39:32;121.63;;;114.23;;
2035;SDS011;23642;42.658;23.350;2023-07-13T10:42:25;125.27;;;117.60;;
2035;SDS011;23642;42.658;23.350;2023-07-13T10:45:19;125.57;;;117.87;;
2035;SDS011;23642;42.658;23.350;2023-07-13T10:48:06;134.23;;;126.10;;
2035;SDS011;23642;42.658;23.350;2023-07-13T10:50:57;136.40;;;127.50;;
2035;SDS011;23642;42.658;23.350;2023-07-13T10:56:43;131.87;;;123.97;;
2035;SDS011;23642;42.658;23.350;2023-07-13T10:59:31;134.47;;;126.17;;
2035;SDS011;23642;42.658;23.350;2023-07-13T11:02:22;135.50;;;127.80;;
2035;SDS011;23642;42.658;23.350;2023-07-13T11:04:59;129.83;;;122.30;;
2035;SDS011;23642;42.658;23.350;2023-07-13T11:08:04;124.23;;;116.83;;
2035;SDS011;23642;42.658;23.350;2023-07-13T11:10:51;125.83;;;118.43;;
2035;SDS011;23642;42.658;23.350;2023-07-13T11:13:39;128.00;;;120.13;;
2035;SDS011;23642;42.658;23.350;2023-07-13T11:16:47;126.80;;;118.80;;
2035;SDS011;23642;42.658;23.350;2023-07-13T11:19:41;126.10;;;117.87;;
2035;SDS011;23642;42.658;23.350;2023-07-13T11:22:46;126.47;;;118.93;;
2035;SDS011;23642;42.658;23.350;2023-07-13T11:25:34;125.63;;;118.03;;
2035;SDS011;23642;42.658;23.350;2023-07-13T11:28:48;128.23;;;121.03;;
2035;SDS011;23642;42.658;23.350;2023-07-13T11:31:25;131.03;;;123.30;;
2035;SDS011;23642;42.658;23.350;2023-07-13T11:34:00;131.93;;;124.07;;
2035;SDS011;23642;42.658;23.350;2023-07-13T11:36:44;121.50;;;114.20;;
2035;SDS011;23642;42.658;23.350;2023-07-13T11:39:20;128.00;;;120.63;;
2035;SDS011;23642;42.658;23.350;2023-07-13T11:42:32;128.60;;;121.17;;
2035;SDS011;23642;42.658;23.350;2023-07-13T11:48:16;125.90;;;118.50;;
2035;SDS011;23642;42.658;23.350;2023-07-13T11:50:51;126.60;;;119.40;;
2035;SDS011;23642;42.658;23.350;2023-07-13T11:53:38;123.40;;;116.03;;
2035;SDS011;23642;42.658;23.350;2023-07-13T11:56:11;139.60;;;131.17;;
2035;SDS011;23642;42.658;23.350;2023-07-13T11:59:02;127.60;;;120.37;;
2035;SDS011;23642;42.658;23.350;2023-07-13T12:02:13;127.00;;;119.33;;
2035;SDS011;23642;42.658;23.350;2023-07-13T12:04:58;123.80;;;116.60;;
2035;SDS011;23642;42.658;23.350;2023-07-13T12:07:44;129.17;;;121.53;;
2035;SDS011;23642;42.658;23.350;2023-07-13T12:10:41;129.57;;;121.27;;
2035;SDS011;23642;42.658;23.350;2023-07-13T12:13:23;132.60;;;123.80;;
2035;SDS011;23642;42.658;23.350;2023-07-13T12:16:57;131.33;;;123.37;;
2035;SDS011;23642;42.658;23.350;2023-07-13T12:19:19;138.77;;;130.87;;
2035;SDS011;23642;42.658;23.350;2023-07-13T12:22:08;130.43;;;122.23;;
2035;SDS011;23642;42.658;23.350;2023-07-13T12:28:30;127.20;;;119.80;;
2035;SDS011;23642;42.658;23.350;2023-07-13T12:31:41;133.30;;;125.50;;
2035;SDS011;23642;42.658;23.350;2023-07-13T12:34:27;134.40;;;126.70;;
2035;SDS011;23642;42.658;23.350;2023-07-13T12:36:56;131.00;;;123.30;;
2035;SDS011;23642;42.658;23.350;2023-07-13T12:40:14;139.97;;;131.80;;
2035;SDS011;23642;42.658;23.350;2023-07-13T12:43:02;140.70;;;132.17;;
2035;SDS011;23642;42.658;23.350;2023-07-13T12:46:24;142.87;;;133.77;;
2035;SDS011;23642;42.658;23.350;2023-07-13T12:52:22;141.90;;;133.07;;
2035;SDS011;23642;42.658;23.350;2023-07-13T12:55:12;142.55;;;133.07;;
2035;SDS011;23642;42.658;23.350;2023-07-13T12:58:03;141.77;;;133.30;;
2035;SDS011;23642;42.658;23.350;2023-07-13T13:02:16;141.15;;;132.98;;
2035;SDS011;23642;42.658;23.350;2023-07-13T13:04:25;141.27;;;132.80;;
2035;SDS011;23642;42.658;23.350;2023-07-13T13:07:08;132.85;;;124.47;;
2035;SDS011;23642;42.658;23.350;2023-07-13T13:16:12;140.13;;;131.98;;
2035;SDS011;23642;42.658;23.350;2023-07-13T13:19:05;140.48;;;132.05;;
2035;SDS011;23642;42.658;23.350;2023-07-13T13:22:09;141.32;;;132.88;;
2035;SDS011;23642;42.658;23.350;2023-07-13T13:24:41;140.70;;;132.45;;
2035;SDS011;23642;42.658;23.350;2023-07-13T13:27:13;129.85;;;122.45;;
2035;SDS011;23642;42.658;23.350;2023-07-13T13:30:00;125.32;;;117.53;;
2035;SDS011;23642;42.658;23.350;2023-07-13T13:32:42;124.15;;;116.60;;
2035;SDS011;23642;42.658;23.350;2023-07-13T13:35:12;133.40;;;125.43;;
2035;SDS011;23642;42.658;23.350;2023-07-13T13:37:40;130.80;;;122.47;;
2035;SDS011;23642;42.658;23.350;2023-07-13T13:40:16;134.13;;;125.32;;
2035;SDS011;23642;42.658;23.350;2023-07-13T13:45:46;130.50;;;122.60;;
2035;SDS011;23642;42.658;23.350;2023-07-13T13:48:14;131.93;;;124.25;;
2035;SDS011;23642;42.658;23.350;2023-07-13T13:50:46;133.68;;;125.53;;
2035;SDS011;23642;42.658;23.350;2023-07-13T13:53:17;141.52;;;133.25;;
2035;SDS011;23642;42.658;23.350;2023-07-13T13:55:55;143.57;;;135.27;;
2035;SDS011;23642;42.658;23.350;2023-07-13T13:58:22;136.60;;;128.38;;
2035;SDS011;23642;42.658;23.350;2023-07-13T14:03:48;133.60;;;125.75;;
2035;SDS011;23642;42.658;23.350;2023-07-13T14:06:23;135.82;;;127.85;;
2035;SDS011;23642;42.658;23.350;2023-07-13T14:09:08;136.35;;;128.68;;
2035;SDS011;23642;42.658;23.350;2023-07-13T14:11:44;136.00;;;127.93;;
2035;SDS011;23642;42.658;23.350;2023-07-13T14:14:16;132.00;;;124.45;;
2035;SDS011;23642;42.658;23.350;2023-07-13T14:16:54;137.07;;;129.07;;
2035;SDS011;23642;42.658;23.350;2023-07-13T14:19:42;139.60;;;131.45;;
2035;SDS011;23642;42.658;23.350;2023-07-13T14:22:22;140.85;;;132.70;;
2035;SDS011;23642;42.658;23.350;2023-07-13T14:25:10;137.93;;;129.85;;
2035;SDS011;23642;42.658;23.350;2023-07-13T14:27:58;132.88;;;124.22;;
2035;SDS011;23642;42.658;23.350;2023-07-13T14:30:51;133.98;;;125.88;;
2035;SDS011;23642;42.658;23.350;2023-07-13T14:33:31;134.15;;;125.90;;
2035;SDS011;23642;42.658;23.350;2023-07-13T14:36:18;136.02;;;127.65;;
2035;SDS011;23642;42.658;23.350;2023-07-13T14:39:12;136.05;;;127.95;;
2035;SDS011;23642;42.658;23.350;2023-07-13T14:45:29;135.07;;;126.95;;
2035;SDS011;23642;42.658;23.350;2023-07-13T14:48:02;130.85;;;122.88;;
2035;SDS011;23642;42.658;23.350;2023-07-13T14:54:13;134.48;;;126.38;;
2035;SDS011;23642;42.658;23.350;2023-07-13T14:57:10;136.10;;;127.15;;
2035;SDS011;23642;42.658;23.350;2023-07-13T14:59:52;134.63;;;126.35;;
2035;SDS011;23642;42.658;23.350;2023-07-13T15:02:23;133.68;;;125.72;;
2035;SDS011;23642;42.658;23.350;2023-07-13T15:05:29;134.32;;;126.40;;
2035;SDS011;23642;42.658;23.350;2023-07-13T15:11:38;135.00;;;126.82;;
2035;SDS011;23642;42.658;23.350;2023-07-13T15:14:25;133.93;;;126.18;;
2035;SDS011;23642;42.658;23.350;2023-07-13T15:20:23;135.20;;;127.00;;
2035;SDS011;23642;42.658;23.350;2023-07-13T15:23:15;130.30;;;122.53;;
2035;SDS011;23642;42.658;23.350;2023-07-13T15:25:51;131.20;;;123.35;;
2035;SDS011;23642;42.658;23.350;2023-07-13T15:28:20;136.82;;;128.43;;
2035;SDS011;23642;42.658;23.350;2023-07-13T15:31:11;131.48;;;123.90;;
2035;SDS011;23642;42.658;23.350;2023-07-13T15:33:57;129.73;;;122.15;;
2035;SDS011;23642;42.658;23.350;2023-07-13T15:36:25;131.85;;;123.63;;
2035;SDS011;23642;42.658;23.350;2023-07-13T15:38:58;132.02;;;124.35;;
2035;SDS011;23642;42.658;23.350;2023-07-13T15:41:45;132.77;;;124.50;;
2035;SDS011;23642;42.658;23.350;2023-07-13T15:44:33;129.90;;;122.30;;
2035;SDS011;23642;42.658;23.350;2023-07-13T15:47:19;128.27;;;120.68;;
2035;SDS011;23642;42.658;23.350;2023-07-13T15:49:47;129.35;;;121.80;;
2035;SDS011;23642;42.658;23.350;2023-07-13T15:52:16;130.68;;;122.93;;
2035;SDS011;23642;42.658;23.350;2023-07-13T15:54:56;131.27;;;123.15;;
2035;SDS011;23642;42.658;23.350;2023-07-13T15:57:46;131.50;;;123.85;;
2035;SDS011;23642;42.658;23.350;2023-07-13T16:00:26;131.23;;;123.43;;
2035;SDS011;23642;42.658;23.350;2023-07-13T16:03:01;131.05;;;123.70;;
2035;SDS011;23642;42.658;23.350;2023-07-13T16:05:31;132.10;;;124.03;;
2035;SDS011;23642;42.658;23.350;2023-07-13T16:07:58;130.73;;;123.25;;
2035;SDS011;23642;42.658;23.350;2023-07-13T16:10:29;131.55;;;123.53;;
2035;SDS011;23642;42.658;23.350;2023-07-13T16:13:12;125.60;;;118.45;;
2035;SDS011;23642;42.658;23.350;2023-07-13T16:15:45;123.97;;;116.78;;
2035;SDS011;23642;42.658;23.350;2023-07-13T16:18:13;124.00;;;116.38;;